Time;durP1;ratioP1;P1;durP2;ratioP2;P2;SDS_P1;SDS_P2;PMS_P1;PMS_P2;Temp;Humidity;BMP_temperature;BMP_pressure;BME280_temperature;BME280_humidity;BME280_pressure;Samples;Min_cycle;Max_cycle;Signal;HPM_P1;HPM_P2
2022/11/28 00:01:12;;;;;;;2.78;1.80;;;19.60;42.30;;;;;;5054277;28;20033;-57
2022/11/28 00:03:38;;;;;;;3.15;1.60;;;19.60;42.20;;;;;;5036149;28;20115;-57
2022/11/28 00:06:05;;;;;;;2.42;1.40;;;19.60;42.30;;;;;;5034230;28;20211;-52
2022/11/28 00:08:31;;;;;;;3.15;1.60;;;19.60;42.30;;;;;;5044123;28;20040;-54
2022/11/28 00:10:57;;;;;;;1.75;1.50;;;19.50;42.30;;;;;;5047164;28;20029;-53
2022/11/28 00:13:23;;;;;;;2.15;1.48;;;19.50;42.30;;;;;;5037183;28;20102;-58
2022/11/28 00:16:00;;;;;;;2.90;1.60;;;19.50;42.30;;;;;;5050962;28;20033;-54
2022/11/28 00:18:26;;;;;;;3.80;1.77;;;19.50;42.30;;;;;;5049337;28;20056;-50
2022/11/28 00:20:57;;;;;;;2.75;1.65;;;19.50;42.30;;;;;;5040217;28;20037;-53
2022/11/28 00:23:23;;;;;;;3.20;1.80;;;19.50;42.30;;;;;;5057588;28;20032;-54
2022/11/28 00:26:03;;;;;;;2.50;1.58;;;19.50;42.30;;;;;;5057788;28;20024;-51
2022/11/28 00:28:29;;;;;;;3.10;1.88;;;19.50;42.30;;;;;;5046290;28;20037;-53
2022/11/28 00:30:55;;;;;;;2.97;1.67;;;19.50;42.30;;;;;;5040164;28;20064;-54
2022/11/28 00:33:21;;;;;;;2.88;1.60;;;19.50;42.30;;;;;;5053167;28;20412;-53
2022/11/28 00:35:47;;;;;;;3.28;1.77;;;19.50;42.40;;;;;;5038186;28;20460;-53
2022/11/28 00:38:13;;;;;;;2.15;1.45;;;19.50;42.40;;;;;;5047778;28;20036;-54
2022/11/28 00:40:39;;;;;;;1.85;1.38;;;19.50;42.40;;;;;;5052829;28;20048;-53
2022/11/28 00:43:04;;;;;;;1.95;1.42;;;19.50;42.40;;;;;;5043545;28;20469;-57
2022/11/28 00:45:30;;;;;;;1.73;1.50;;;19.40;42.30;;;;;;5038136;28;20403;-54
2022/11/28 00:47:56;;;;;;;2.42;1.75;;;19.40;42.40;;;;;;5037766;28;20040;-51
2022/11/28 00:50:22;;;;;;;3.13;1.88;;;19.40;42.40;;;;;;5024728;28;20029;-54
2022/11/28 00:52:48;;;;;;;2.53;1.73;;;19.40;42.40;;;;;;5042117;28;20037;-56
2022/11/28 00:55:13;;;;;;;1.70;1.40;;;19.40;42.40;;;;;;5051268;28;20111;-55
2022/11/28 00:57:39;;;;;;;2.03;1.48;;;19.40;42.40;;;;;;5057606;28;20337;-55
2022/11/28 01:00:06;;;;;;;2.72;1.80;;;19.40;42.50;;;;;;5057291;28;20025;-56
2022/11/28 01:02:32;;;;;;;2.22;1.55;;;19.40;42.50;;;;;;5045884;28;20095;-54
2022/11/28 01:04:59;;;;;;;2.47;1.40;;;19.40;42.50;;;;;;5039080;28;20021;-51
2022/11/28 01:07:27;;;;;;;2.55;1.52;;;19.40;42.50;;;;;;5055571;28;20152;-55
2022/11/28 01:09:54;;;;;;;2.80;2.05;;;19.40;42.60;;;;;;5056999;28;20364;-54
2022/11/28 01:12:20;;;;;;;3.00;1.88;;;19.40;42.60;;;;;;5056987;28;20048;-49
2022/11/28 01:14:46;;;;;;;2.40;1.52;;;19.40;42.60;;;;;;5057455;28;20037;-55
2022/11/28 01:17:12;;;;;;;2.25;1.45;;;19.40;42.60;;;;;;5020627;28;20094;-54
2022/11/28 01:19:37;;;;;;;2.00;1.80;;;19.40;42.60;;;;;;5040198;28;20440;-52
2022/11/28 01:22:05;;;;;;;2.63;1.65;;;19.40;42.60;;;;;;5043298;28;20142;-55
2022/11/28 01:24:32;;;;;;;2.20;1.63;;;19.30;42.70;;;;;;5054774;28;20029;-54
2022/11/28 01:26:58;;;;;;;2.78;1.58;;;19.30;42.70;;;;;;5056575;28;20039;-53
2022/11/28 01:29:23;;;;;;;2.70;1.88;;;19.30;42.70;;;;;;5047011;28;20448;-55
2022/11/28 01:31:49;;;;;;;2.13;1.55;;;19.30;42.70;;;;;;5051395;28;20060;-56
2022/11/28 01:34:15;;;;;;;2.30;1.60;;;19.30;42.80;;;;;;5056327;28;20032;-54
2022/11/28 01:36:41;;;;;;;2.10;1.60;;;19.30;42.80;;;;;;5053992;28;20047;-53
2022/11/28 01:39:07;;;;;;;1.80;1.40;;;19.30;43.50;;;;;;5044967;28;20113;-55
2022/11/28 01:41:33;;;;;;;1.75;1.25;;;19.30;42.90;;;;;;5036390;28;20112;-55
2022/11/28 01:44:14;;;;;;;1.67;1.30;;;19.30;42.90;;;;;;5036242;28;20033;-55
2022/11/28 01:46:40;;;;;;;2.63;1.63;;;19.30;43.00;;;;;;5036803;28;20457;-55
2022/11/28 01:49:17;;;;;;;1.73;1.45;;;19.30;43.00;;;;;;5053609;28;20025;-54
2022/11/28 01:51:51;;;;;;;2.85;1.60;;;19.30;43.10;;;;;;5036228;28;20460;-54
2022/11/28 01:54:20;;;;;;;3.13;1.60;;;19.30;43.10;;;;;;5036369;28;20072;-54
2022/11/28 01:56:54;;;;;;;3.60;1.35;;;19.30;43.20;;;;;;5035872;28;20049;-50
2022/11/28 01:59:25;;;;;;;2.00;1.30;;;19.20;43.20;;;;;;5036935;28;20109;-55
2022/11/28 02:01:51;;;;;;;1.95;1.40;;;19.30;43.30;;;;;;5051452;28;20032;-54
2022/11/28 02:04:17;;;;;;;2.47;1.30;;;19.30;43.40;;;;;;5055954;28;20029;-53
2022/11/28 02:06:43;;;;;;;2.45;1.42;;;19.20;43.30;;;;;;5053766;28;20097;-57
2022/11/28 02:09:14;;;;;;;1.85;1.48;;;19.30;43.40;;;;;;5051527;28;20456;-53
2022/11/28 02:11:43;;;;;;;1.95;1.30;;;19.20;43.30;;;;;;5055686;28;20047;-56
2022/11/28 02:14:39;;;;;;;2.92;1.58;;;19.20;43.40;;;;;;5054561;28;20025;-55
2022/11/28 02:17:25;;;;;;;2.33;1.58;;;19.20;43.30;;;;;;5036573;28;20045;-55
2022/11/28 02:19:54;;;;;;;2.28;1.38;;;19.20;43.30;;;;;;5035258;28;20067;-56
2022/11/28 02:22:32;;;;;;;2.60;1.52;;;19.20;43.40;;;;;;5035429;28;20041;-56
2022/11/28 02:25:42;;;;;;;2.90;1.35;;;19.20;43.40;;;;;;5034860;28;20034;-56
2022/11/28 02:28:42;;;;;;;3.38;1.67;;;19.20;43.50;;;;;;5041498;28;20108;-57
2022/11/28 02:31:23;;;;;;;1.70;1.25;;;19.20;43.50;;;;;;5018287;28;20042;-55
2022/11/28 02:34:02;;;;;;;1.83;1.40;;;19.10;43.60;;;;;;5035961;28;20120;-56
2022/11/28 02:36:42;;;;;;;4.22;1.40;;;19.20;43.80;;;;;;5034824;28;20025;-57
2022/11/28 02:39:45;;;;;;;2.63;1.55;;;19.20;43.90;;;;;;5035928;28;20040;-56
2022/11/28 02:42:22;;;;;;;1.77;1.40;;;19.10;43.90;;;;;;5044223;28;20043;-54
2022/11/28 02:45:04;;;;;;;2.47;1.30;;;19.10;44.00;;;;;;5055242;28;20037;-51
2022/11/28 02:47:37;;;;;;;2.30;1.20;;;19.10;44.20;;;;;;5046808;28;20056;-56
2022/11/28 02:50:14;;;;;;;1.73;1.08;;;19.10;44.20;;;;;;5036628;28;20021;-51
2022/11/28 02:52:54;;;;;;;2.08;1.45;;;19.10;44.30;;;;;;5048633;28;20059;-57
2022/11/28 02:55:20;;;;;;;2.20;1.40;;;19.10;44.30;;;;;;5054771;28;20037;-54
2022/11/28 02:57:51;;;;;;;1.90;1.38;;;19.00;44.30;;;;;;5045308;28;20033;-53
2022/11/28 03:00:35;;;;;;;1.73;1.25;;;19.00;44.40;;;;;;5035204;28;20038;-55
2022/11/28 03:03:26;;;;;;;1.90;1.25;;;19.00;44.40;;;;;;5043825;28;20447;-56
2022/11/28 03:06:10;;;;;;;1.65;1.25;;;19.00;44.50;;;;;;5055226;28;20147;-54
2022/11/28 03:08:55;;;;;;;2.17;1.40;;;19.00;44.50;;;;;;5031190;28;20353;-56
2022/11/28 03:11:39;;;;;;;2.78;1.45;;;19.00;44.60;;;;;;5044111;28;20475;-57
2022/11/28 03:14:30;;;;;;;1.42;1.00;;;19.00;44.60;;;;;;5019336;28;20037;-55
2022/11/28 03:17:25;;;;;;;1.50;1.10;;;19.00;44.70;;;;;;5054291;28;20029;-55
2022/11/28 03:20:13;;;;;;;1.38;1.20;;;19.00;44.80;;;;;;5036304;28;20060;-53
2022/11/28 03:22:41;;;;;;;2.08;1.38;;;19.00;44.80;;;;;;5029698;28;20025;-56
2022/11/28 03:25:11;;;;;;;2.45;1.50;;;19.00;44.80;;;;;;5052513;28;20033;-54
2022/11/28 03:27:45;;;;;;;2.15;1.35;;;19.00;44.90;;;;;;5035165;28;20040;-55
2022/11/28 03:30:39;;;;;;;1.73;1.20;;;19.00;44.90;;;;;;5034454;28;20029;-55
2022/11/28 03:33:07;;;;;;;1.42;1.10;;;19.00;44.90;;;;;;5034663;28;20056;-56
2022/11/28 03:35:37;;;;;;;1.95;1.30;;;19.00;44.90;;;;;;5035615;28;20029;-54
2022/11/28 03:38:11;;;;;;;2.47;1.50;;;19.00;45.00;;;;;;5052693;28;20036;-55
2022/11/28 03:40:44;;;;;;;2.13;1.25;;;19.00;45.00;;;;;;5043557;28;20037;-57
2022/11/28 03:43:15;;;;;;;2.00;1.10;;;19.00;45.10;;;;;;5017551;28;20039;-58
2022/11/28 03:45:46;;;;;;;1.40;1.20;;;19.00;45.10;;;;;;5034646;28;20034;-56
2022/11/28 03:48:34;;;;;;;1.45;1.30;;;19.00;45.20;;;;;;5047178;28;20033;-55
2022/11/28 03:51:20;;;;;;;1.38;1.10;;;19.00;45.20;;;;;;5048241;28;20030;-56
2022/11/28 03:54:04;;;;;;;1.30;1.20;;;19.00;45.20;;;;;;5057322;28;20025;-54
2022/11/28 03:56:52;;;;;;;3.45;1.38;;;18.90;45.20;;;;;;5058529;28;20043;-55
2022/11/28 03:59:35;;;;;;;1.42;1.20;;;18.90;45.20;;;;;;5058183;28;20341;-55
2022/11/28 04:02:07;;;;;;;1.60;1.10;;;19.00;45.20;;;;;;5056860;28;20040;-55
2022/11/28 04:04:39;;;;;;;1.70;1.40;;;18.90;45.20;;;;;;5050775;28;20052;-53
2022/11/28 04:07:38;;;;;;;2.60;1.23;;;18.90;45.30;;;;;;5038120;28;20124;-49
2022/11/28 04:10:16;;;;;;;1.70;1.00;;;18.90;45.30;;;;;;5057314;28;20041;-53
2022/11/28 04:12:56;;;;;;;1.60;1.10;;;18.90;45.40;;;;;;5037911;28;20088;-56
2022/11/28 04:15:46;;;;;;;1.80;1.15;;;18.90;45.40;;;;;;5038351;28;20084;-55
2022/11/28 04:18:18;;;;;;;2.20;1.50;;;18.90;45.40;;;;;;5032385;28;20041;-56
2022/11/28 04:20:48;;;;;;;3.17;1.60;;;18.90;45.50;;;;;;5057557;28;20045;-56
2022/11/28 04:23:17;;;;;;;1.52;1.23;;;18.90;45.50;;;;;;5057858;28;20040;-53
2022/11/28 04:25:51;;;;;;;2.30;1.25;;;18.90;45.50;;;;;;5048187;28;20057;-54
2022/11/28 04:28:21;;;;;;;1.95;1.27;;;18.90;45.60;;;;;;5045834;28;20025;-53
2022/11/28 04:30:49;;;;;;;1.52;1.30;;;18.90;45.60;;;;;;5058181;28;20025;-54
2022/11/28 04:33:18;;;;;;;2.03;1.20;;;18.90;45.60;;;;;;5043758;28;20052;-54
2022/11/28 04:35:49;;;;;;;2.10;1.20;;;18.90;46.20;;;;;;5038169;28;20038;-51
2022/11/28 04:38:16;;;;;;;1.60;1.10;;;18.90;45.60;;;;;;5050218;28;20041;-52
2022/11/28 04:40:50;;;;;;;1.88;1.50;;;18.90;45.70;;;;;;5046079;28;20041;-54
2022/11/28 04:43:22;;;;;;;3.15;1.42;;;18.90;45.70;;;;;;5038143;28;20387;-51
2022/11/28 04:45:53;;;;;;;1.88;1.20;;;18.90;45.70;;;;;;5039200;28;20040;-51
2022/11/28 04:48:19;;;;;;;1.17;1.05;;;18.90;45.70;;;;;;5042461;28;20348;-54
2022/11/28 04:51:13;;;;;;;2.00;1.30;;;18.90;45.70;;;;;;5037158;28;20025;-53
2022/11/28 04:53:53;;;;;;;2.00;1.35;;;18.90;45.70;;;;;;5056472;28;20044;-55
2022/11/28 04:56:26;;;;;;;2.50;1.45;;;18.90;45.80;;;;;;5056853;28;20444;-55
2022/11/28 04:58:52;;;;;;;2.63;1.30;;;18.90;45.80;;;;;;5040000;28;20341;-54
2022/11/28 05:01:26;;;;;;;2.05;1.55;;;18.90;45.80;;;;;;5030452;28;20043;-53
2022/11/28 05:03:53;;;;;;;1.55;1.40;;;18.90;45.80;;;;;;5052075;28;20033;-51
2022/11/28 05:06:28;;;;;;;2.20;1.70;;;18.90;45.90;;;;;;5036942;28;20034;-52
2022/11/28 05:08:54;;;;;;;1.10;1.00;;;18.80;45.80;;;;;;5038202;28;20497;-54
2022/11/28 05:11:20;;;;;;;2.00;1.30;;;18.80;45.80;;;;;;5037470;28;20073;-52
2022/11/28 05:13:46;;;;;;;1.63;1.15;;;18.90;45.90;;;;;;5019748;28;20035;-55
2022/11/28 05:16:13;;;;;;;1.65;1.30;;;18.80;45.90;;;;;;5037161;28;20044;-50
2022/11/28 05:18:39;;;;;;;1.75;1.00;;;18.80;45.90;;;;;;5038016;28;20095;-53
2022/11/28 05:21:07;;;;;;;1.77;1.33;;;18.90;46.00;;;;;;5053851;28;20056;-56
2022/11/28 05:23:37;;;;;;;1.98;1.13;;;18.80;45.90;;;;;;5055728;28;20025;-53
2022/11/28 05:26:11;;;;;;;1.88;1.40;;;18.80;46.60;;;;;;5055457;28;20036;-53
2022/11/28 05:28:37;;;;;;;1.75;1.10;;;18.80;46.00;;;;;;5055128;28;20044;-56
2022/11/28 05:31:03;;;;;;;1.75;1.10;;;18.80;46.00;;;;;;5056826;28;20032;-53
2022/11/28 05:33:30;;;;;;;1.48;0.95;;;18.80;46.00;;;;;;5056079;28;20036;-50
2022/11/28 05:36:00;;;;;;;2.15;0.95;;;18.80;46.10;;;;;;5041092;28;20040;-52
2022/11/28 05:38:26;;;;;;;1.30;1.10;;;18.80;46.10;;;;;;5051571;28;20115;-56
2022/11/28 05:40:52;;;;;;;1.10;1.00;;;18.80;46.10;;;;;;5055667;28;20103;-55
2022/11/28 05:43:18;;;;;;;1.73;1.35;;;18.80;46.20;;;;;;5038789;28;20432;-55
2022/11/28 05:45:44;;;;;;;2.00;1.25;;;18.80;46.20;;;;;;5053535;28;20060;-53
2022/11/28 05:48:10;;;;;;;1.33;1.17;;;18.80;46.20;;;;;;5037697;28;20064;-51
2022/11/28 05:50:40;;;;;;;2.20;1.13;;;18.80;46.30;;;;;;5035853;28;20049;-55
2022/11/28 05:53:07;;;;;;;1.67;0.90;;;18.80;46.30;;;;;;5036490;28;20052;-55
2022/11/28 05:55:33;;;;;;;0.95;0.77;;;18.80;46.30;;;;;;5044061;28;20032;-51
2022/11/28 05:57:59;;;;;;;0.98;0.85;;;18.80;46.30;;;;;;5041006;28;20021;-55
2022/11/28 06:00:25;;;;;;;1.00;0.90;;;18.80;46.30;;;;;;5036355;28;20527;-52
2022/11/28 06:02:51;;;;;;;1.10;1.00;;;18.80;46.30;;;;;;5049491;28;20033;-54
2022/11/28 06:05:16;;;;;;;1.33;0.70;;;18.80;46.40;;;;;;5055142;28;20037;-56
2022/11/28 06:07:42;;;;;;;0.90;0.80;;;18.80;46.40;;;;;;5050045;28;20072;-49
2022/11/28 06:10:08;;;;;;;0.90;0.73;;;18.80;46.40;;;;;;5035499;28;20030;-54
2022/11/28 06:12:34;;;;;;;0.98;0.80;;;18.80;46.40;;;;;;5041829;28;20531;-54
2022/11/28 06:15:00;;;;;;;1.00;0.80;;;18.80;46.50;;;;;;5055857;28;20040;-57
2022/11/28 06:17:25;;;;;;;0.70;0.70;;;18.80;46.50;;;;;;5052609;28;20349;-53
2022/11/28 06:19:51;;;;;;;1.30;0.70;;;18.80;46.50;;;;;;5035963;28;20049;-53
2022/11/28 06:22:17;;;;;;;1.45;0.80;;;18.80;46.50;;;;;;5017872;28;20040;-53
2022/11/28 06:24:43;;;;;;;0.70;0.70;;;18.80;46.50;;;;;;5035666;28;20100;-55
2022/11/28 06:27:09;;;;;;;0.70;0.70;;;18.80;46.60;;;;;;5054133;28;20025;-51
2022/11/28 06:29:34;;;;;;;1.42;0.93;;;18.70;46.50;;;;;;5037053;28;20090;-53
2022/11/28 06:32:00;;;;;;;0.70;0.70;;;18.70;46.50;;;;;;5035898;28;20033;-51
2022/11/28 06:34:26;;;;;;;0.85;0.70;;;18.70;46.60;;;;;;5035465;28;20106;-53
2022/11/28 06:36:52;;;;;;;0.63;0.57;;;18.70;46.60;;;;;;5039767;28;20021;-55
2022/11/28 06:39:18;;;;;;;0.68;0.68;;;18.70;46.60;;;;;;5051595;28;20115;-55
2022/11/28 06:41:44;;;;;;;0.70;0.70;;;18.70;46.60;;;;;;5055500;28;20056;-55
2022/11/28 06:44:14;;;;;;;0.75;0.63;;;18.70;46.70;;;;;;5055393;28;20184;-52
2022/11/28 06:46:40;;;;;;;0.63;0.60;;;18.70;46.70;;;;;;5054466;28;20051;-55
2022/11/28 06:49:06;;;;;;;0.65;0.60;;;18.70;46.70;;;;;;5035374;28;20033;-55
2022/11/28 06:51:32;;;;;;;1.08;0.68;;;18.70;46.70;;;;;;5050151;28;20329;-52
2022/11/28 06:53:58;;;;;;;1.23;0.70;;;18.70;46.70;;;;;;5055007;28;20045;-52
2022/11/28 06:56:24;;;;;;;0.82;0.60;;;18.70;46.80;;;;;;5054790;28;20040;-52
2022/11/28 06:58:54;;;;;;;2.03;0.70;;;18.80;46.80;;;;;;5055039;28;20033;-50
2022/11/28 07:01:22;;;;;;;1.45;0.60;;;18.70;46.80;;;;;;5054328;28;20345;-52
2022/11/28 07:03:48;;;;;;;1.00;0.70;;;18.70;46.80;;;;;;5053157;28;20029;-50
2022/11/28 07:06:17;;;;;;;0.95;0.68;;;18.70;46.80;;;;;;5054183;28;20032;-52
2022/11/28 07:08:43;;;;;;;0.70;0.55;;;18.70;46.80;;;;;;5019665;28;20067;-54
2022/11/28 07:11:16;;;;;;;1.00;0.80;;;18.70;46.80;;;;;;5041190;28;20065;-52
2022/11/28 07:13:44;;;;;;;1.55;0.90;;;18.70;46.80;;;;;;5045473;28;20057;-56
2022/11/28 07:16:22;;;;;;;1.08;0.70;;;18.70;46.80;;;;;;5020917;28;20065;-51
2022/11/28 07:18:49;;;;;;;1.02;0.70;;;18.70;46.90;;;;;;5053244;28;20123;-50
2022/11/28 07:21:16;;;;;;;0.73;0.50;;;18.70;46.90;;;;;;5052193;28;20069;-54
2022/11/28 07:23:43;;;;;;;1.10;0.73;;;18.70;46.90;;;;;;5034365;28;20030;-56
2022/11/28 07:26:11;;;;;;;1.10;0.82;;;18.70;46.90;;;;;;5035380;28;20033;-49
2022/11/28 07:28:38;;;;;;;0.93;0.75;;;18.70;46.90;;;;;;5044098;28;20053;-54
2022/11/28 07:31:06;;;;;;;0.80;0.57;;;18.70;46.90;;;;;;5034765;28;20357;-54
2022/11/28 07:33:34;;;;;;;1.33;0.77;;;18.70;47.50;;;;;;5035588;28;20025;-55
2022/11/28 07:36:04;;;;;;;0.68;0.50;;;18.70;46.90;;;;;;5034636;28;20352;-57
2022/11/28 07:38:30;;;;;;;0.85;0.57;;;18.70;46.90;;;;;;5035113;28;20456;-59
2022/11/28 07:41:08;;;;;;;1.55;0.52;;;18.70;46.90;;;;;;5026442;28;20033;-54
2022/11/28 07:43:34;;;;;;;0.80;0.68;;;18.70;47.00;;;;;;5043080;28;20341;-52
2022/11/28 07:46:09;;;;;;;0.73;0.50;;;18.80;47.00;;;;;;5050524;28;20036;-55
2022/11/28 07:48:35;;;;;;;0.73;0.60;;;18.70;47.00;;;;;;5030676;28;20029;-57
2022/11/28 07:51:16;;;;;;;1.10;0.88;;;18.80;47.00;;;;;;5047140;28;20021;-55
2022/11/28 07:53:42;;;;;;;1.35;0.80;;;18.80;47.00;;;;;;5034629;28;20045;-56
2022/11/28 07:56:13;;;;;;;0.88;0.60;;;18.70;47.00;;;;;;5026853;28;20086;-57
2022/11/28 07:58:41;;;;;;;1.08;0.50;;;18.80;47.00;;;;;;5054215;28;20036;-55
2022/11/28 08:01:12;;;;;;;1.10;0.70;;;18.80;47.00;;;;;;5027204;28;20112;-53
2022/11/28 08:03:39;;;;;;;1.15;0.80;;;18.80;47.00;;;;;;5050573;28;20082;-56
2022/11/28 08:06:05;;;;;;;1.42;0.68;;;18.80;47.10;;;;;;5042157;28;20037;-56
2022/11/28 08:08:31;;;;;;;0.57;0.47;;;18.90;47.10;;;;;;5041659;28;20040;-56
2022/11/28 08:11:03;;;;;;;1.02;0.50;;;18.90;47.10;;;;;;5016737;28;20341;-56
2022/11/28 08:13:29;;;;;;;2.08;0.63;;;18.90;47.10;;;;;;5034038;28;20056;-53
2022/11/28 08:15:55;;;;;;;0.80;0.50;;;19.00;47.10;;;;;;5046869;28;20034;-55
2022/11/28 08:18:21;;;;;;;0.68;0.63;;;19.00;47.00;;;;;;5045550;28;20044;-54
2022/11/28 08:20:46;;;;;;;1.10;0.70;;;19.10;47.00;;;;;;5051114;28;20510;-51
2022/11/28 08:23:12;;;;;;;1.20;0.70;;;19.10;46.90;;;;;;5045629;28;20017;-55
2022/11/28 08:25:38;;;;;;;2.33;1.33;;;19.20;46.90;;;;;;5050097;28;20390;-56
2022/11/28 08:28:04;;;;;;;2.83;0.73;;;19.30;46.80;;;;;;5048526;28;20064;-55
2022/11/28 08:30:30;;;;;;;1.95;0.68;;;19.40;46.80;;;;;;5034383;28;20116;-52
2022/11/28 08:32:59;;;;;;;0.75;0.50;;;19.40;46.70;;;;;;5038420;28;20463;-57
2022/11/28 08:35:25;;;;;;;0.80;0.60;;;19.50;46.70;;;;;;5049515;28;20423;-55
2022/11/28 08:37:51;;;;;;;2.70;0.60;;;19.60;46.60;;;;;;5047270;28;20060;-52
2022/11/28 08:40:17;;;;;;;2.92;0.70;;;19.60;46.50;;;;;;5026347;28;20052;-56
2022/11/28 08:42:42;;;;;;;1.33;0.60;;;19.70;46.50;;;;;;5033512;28;20051;-57
2022/11/28 08:45:10;;;;;;;1.48;0.80;;;19.80;46.40;;;;;;5050944;28;20040;-55
2022/11/28 08:47:36;;;;;;;1.05;0.73;;;19.80;46.30;;;;;;5052258;28;20040;-55
2022/11/28 08:50:02;;;;;;;1.42;0.65;;;19.90;46.30;;;;;;5050686;28;20029;-54
2022/11/28 08:52:28;;;;;;;0.88;0.60;;;20.00;46.20;;;;;;5050460;28;20040;-53
2022/11/28 08:54:54;;;;;;;0.80;0.50;;;20.00;46.10;;;;;;5027886;28;20530;-57
2022/11/28 08:57:20;;;;;;;0.80;0.70;;;20.10;46.00;;;;;;5051546;28;20104;-55
2022/11/28 08:59:45;;;;;;;1.23;0.63;;;20.20;45.90;;;;;;5051267;28;20355;-57
2022/11/28 09:02:11;;;;;;;0.88;0.70;;;20.20;45.80;;;;;;5047369;28;20063;-55
2022/11/28 09:04:37;;;;;;;2.08;0.80;;;20.30;45.80;;;;;;5049173;28;20439;-56
2022/11/28 09:07:03;;;;;;;1.00;0.60;;;20.40;45.70;;;;;;5047437;28;20128;-50
2022/11/28 09:09:29;;;;;;;1.30;0.70;;;20.40;45.50;;;;;;5051966;28;20040;-53
2022/11/28 09:11:55;;;;;;;1.75;0.60;;;20.50;45.60;;;;;;5047741;28;20045;-57
2022/11/28 09:14:21;;;;;;;0.70;0.63;;;20.60;45.40;;;;;;5048354;28;20367;-57
2022/11/28 09:16:46;;;;;;;0.88;0.65;;;20.60;45.30;;;;;;5050288;28;20029;-54
2022/11/28 09:19:12;;;;;;;2.55;0.60;;;20.70;45.20;;;;;;5050870;28;20048;-55
2022/11/28 09:21:39;;;;;;;1.08;0.55;;;20.70;45.10;;;;;;5032158;28;20538;-55
2022/11/28 09:24:06;;;;;;;1.60;0.82;;;20.80;45.10;;;;;;5051131;28;20110;-58
2022/11/28 09:26:32;;;;;;;0.70;0.60;;;20.90;45.00;;;;;;5046796;28;20025;-54
2022/11/28 09:28:58;;;;;;;1.17;0.65;;;20.90;45.00;;;;;;5050301;28;20025;-51
2022/11/28 09:31:24;;;;;;;0.70;0.50;;;20.90;44.90;;;;;;5050029;28;20377;-55
2022/11/28 09:33:50;;;;;;;1.13;0.63;;;21.00;44.90;;;;;;5020098;28;21398;-54
2022/11/28 09:36:19;;;;;;;0.75;0.60;;;21.00;44.70;;;;;;5049022;28;20082;-56
2022/11/28 09:38:46;;;;;;;0.88;0.60;;;21.10;44.70;;;;;;5051774;28;20029;-54
2022/11/28 09:41:17;;;;;;;0.60;0.55;;;21.10;44.60;;;;;;5050762;28;20044;-51
2022/11/28 09:43:45;;;;;;;0.65;0.50;;;21.20;44.90;;;;;;5044810;28;20399;-55
2022/11/28 09:46:23;;;;;;;0.98;0.68;;;21.20;44.50;;;;;;5031809;28;20040;-51
2022/11/28 09:48:53;;;;;;;0.32;0.32;;;21.30;44.50;;;;;;5047177;28;20455;-56
2022/11/28 09:51:42;;;;;;;0.60;0.50;;;21.30;44.30;;;;;;5047759;28;20033;-54
2022/11/28 09:54:26;;;;;;;1.10;0.60;;;21.40;44.30;;;;;;5046495;28;20021;-55
2022/11/28 09:56:52;;;;;;;0.53;0.50;;;21.40;44.30;;;;;;5020578;28;20351;-53
2022/11/28 09:59:29;;;;;;;1.13;0.70;;;21.40;44.10;;;;;;5032391;28;20082;-55
2022/11/28 10:02:15;;;;;;;1.23;0.70;;;21.40;44.10;;;;;;5040780;28;20048;-54
2022/11/28 10:05:01;;;;;;;0.88;0.60;;;21.50;44.00;;;;;;5050868;28;20113;-51
2022/11/28 10:07:39;;;;;;;0.90;0.60;;;21.50;44.00;;;;;;5047687;28;20068;-55
2022/11/28 10:10:11;;;;;;;0.80;0.70;;;21.60;44.00;;;;;;5051472;28;20035;-54
2022/11/28 10:12:39;;;;;;;2.35;0.70;;;21.60;43.90;;;;;;5046619;28;20045;-52
2022/11/28 10:15:23;;;;;;;1.40;0.65;;;21.60;43.80;;;;;;5049921;28;20025;-55
2022/11/28 10:18:04;;;;;;;0.85;0.57;;;21.70;43.80;;;;;;5046492;28;20029;-57
2022/11/28 10:20:36;;;;;;;0.93;0.63;;;21.70;43.80;;;;;;5047098;28;20051;-53
2022/11/28 10:23:05;;;;;;;0.70;0.60;;;21.70;43.70;;;;;;5048447;28;20443;-53
2022/11/28 10:25:50;;;;;;;0.85;0.60;;;21.70;43.70;;;;;;5050527;28;20443;-54
2022/11/28 10:28:29;;;;;;;1.15;0.45;;;21.70;43.60;;;;;;5047293;28;20140;-52
2022/11/28 10:31:08;;;;;;;0.63;0.60;;;21.70;43.60;;;;;;5049194;28;20024;-54
2022/11/28 10:33:59;;;;;;;0.55;0.40;;;21.80;43.60;;;;;;5046047;28;20052;-57
2022/11/28 10:36:31;;;;;;;0.70;0.50;;;21.70;43.50;;;;;;5024484;28;20025;-55
2022/11/28 10:39:01;;;;;;;0.50;0.47;;;21.80;43.50;;;;;;5049549;28;20049;-58
2022/11/28 10:41:33;;;;;;;0.57;0.45;;;21.80;43.50;;;;;;5047033;28;20043;-56
2022/11/28 10:44:17;;;;;;;0.85;0.50;;;21.80;43.60;;;;;;5048953;28;20032;-57
2022/11/28 10:46:48;;;;;;;0.57;0.30;;;21.80;43.50;;;;;;5049332;28;20073;-56
2022/11/28 10:49:43;;;;;;;0.65;0.50;;;21.80;43.50;;;;;;5049710;28;20112;-52
2022/11/28 10:52:38;;;;;;;0.73;0.60;;;21.80;43.50;;;;;;5051327;28;20132;-53
2022/11/28 10:55:21;;;;;;;0.80;0.45;;;21.80;43.50;;;;;;5024754;28;20131;-54
2022/11/28 10:58:10;;;;;;;0.68;0.60;;;21.80;43.50;;;;;;5047825;28;20044;-57
2022/11/28 11:00:37;;;;;;;0.55;0.30;;;21.80;43.50;;;;;;5047567;28;20028;-57
2022/11/28 11:03:04;;;;;;;1.27;0.52;;;21.80;43.60;;;;;;5047424;28;20037;-55
2022/11/28 11:05:34;;;;;;;0.90;0.57;;;21.80;43.60;;;;;;5049646;28;20036;-59
2022/11/28 11:08:30;;;;;;;0.63;0.45;;;21.80;43.60;;;;;;5045134;28;20041;-58
2022/11/28 11:11:29;;;;;;;1.33;0.68;;;21.80;43.60;;;;;;5047259;28;20064;-57
2022/11/28 11:14:05;;;;;;;1.25;0.60;;;21.80;43.60;;;;;;5025548;28;20052;-54
2022/11/28 11:16:52;;;;;;;0.60;0.50;;;21.80;43.70;;;;;;5046049;28;20032;-53
2022/11/28 11:19:33;;;;;;;0.98;0.70;;;21.80;43.70;;;;;;5045590;28;20067;-52
2022/11/28 11:22:19;;;;;;;0.68;0.45;;;21.70;43.70;;;;;;5048196;28;20033;-55
2022/11/28 11:25:14;;;;;;;0.70;0.60;;;21.80;43.70;;;;;;5045405;28;20387;-53
2022/11/28 11:27:48;;;;;;;2.17;0.63;;;21.70;43.80;;;;;;5048616;28;20471;-53
2022/11/28 11:30:34;;;;;;;2.92;0.75;;;21.70;43.80;;;;;;5046037;28;20037;-54
2022/11/28 11:33:03;;;;;;;0.93;0.70;;;21.70;43.90;;;;;;5045979;28;20182;-56
2022/11/28 11:35:41;;;;;;;1.55;0.90;;;21.70;43.90;;;;;;5054151;28;20356;-53
2022/11/28 11:38:28;;;;;;;1.95;0.90;;;21.70;43.90;;;;;;5035124;28;20159;-52
2022/11/28 11:40:54;;;;;;;1.95;0.85;;;21.70;43.90;;;;;;5033485;28;20330;-51
2022/11/28 11:43:34;;;;;;;1.67;0.95;;;21.70;43.90;;;;;;5049124;28;20036;-51
2022/11/28 11:46:09;;;;;;;0.93;0.65;;;21.70;43.90;;;;;;5054592;28;20078;-51
2022/11/28 11:48:51;;;;;;;1.25;0.70;;;21.70;43.90;;;;;;5035010;28;20360;-52
2022/11/28 11:51:24;;;;;;;2.63;0.88;;;21.70;43.90;;;;;;5034147;28;20041;-55
2022/11/28 11:54:12;;;;;;;1.33;0.80;;;21.70;44.00;;;;;;5034774;28;20441;-55
2022/11/28 11:56:43;;;;;;;1.20;0.77;;;21.70;44.00;;;;;;5034411;28;20072;-53
2022/11/28 11:59:26;;;;;;;2.05;1.00;;;21.70;44.00;;;;;;5040528;28;20094;-50
2022/11/28 12:01:57;;;;;;;1.10;0.80;;;21.70;44.00;;;;;;5044322;28;20087;-52
2022/11/28 12:04:36;;;;;;;1.08;0.90;;;21.70;44.00;;;;;;5041439;28;20037;-51
2022/11/28 12:07:06;;;;;;;1.10;0.65;;;21.70;44.00;;;;;;5048356;28;20043;-58
2022/11/28 12:09:45;;;;;;;4.18;0.90;;;21.60;44.10;;;;;;5045027;28;20086;-58
2022/11/28 12:12:22;;;;;;;3.25;1.40;;;21.70;44.50;;;;;;5048962;28;20123;-59
2022/11/28 12:14:51;;;;;;;3.22;0.98;;;21.70;44.90;;;;;;5045803;28;20104;-61
2022/11/28 12:17:40;;;;;;;4.90;0.90;;;21.70;45.20;;;;;;5044412;28;20028;-56
2022/11/28 12:20:25;;;;;;;3.60;0.82;;;21.70;45.30;;;;;;5015124;28;20060;-49
2022/11/28 12:23:01;;;;;;;1.08;0.77;;;21.80;45.40;;;;;;5020798;28;20780;-52
2022/11/28 12:25:41;;;;;;;1.80;0.80;;;21.80;45.40;;;;;;5048568;28;20048;-58
2022/11/28 12:28:29;;;;;;;0.82;0.60;;;21.90;45.30;;;;;;5046794;28;20460;-57
2022/11/28 12:31:19;;;;;;;2.95;1.10;;;22.00;45.10;;;;;;5051339;28;20029;-59
2022/11/28 12:33:53;;;;;;;1.85;0.90;;;22.10;44.90;;;;;;5048874;28;20090;-59
2022/11/28 12:36:28;;;;;;;2.47;0.90;;;22.20;44.60;;;;;;5049257;28;20033;-57
2022/11/28 12:39:08;;;;;;;2.92;0.80;;;22.40;44.20;;;;;;5047450;28;20071;-57
2022/11/28 12:41:46;;;;;;;6.50;0.90;;;22.40;43.60;;;;;;5042179;28;20025;-56
2022/11/28 12:44:27;;;;;;;1.35;0.85;;;22.60;43.20;;;;;;5044792;28;20086;-58
2022/11/28 12:47:08;;;;;;;1.73;0.80;;;22.70;42.90;;;;;;5044169;28;20071;-51
2022/11/28 12:50:12;;;;;;;1.52;0.80;;;22.80;42.60;;;;;;5029374;28;20044;-51
2022/11/28 12:53:03;;;;;;;0.93;0.70;;;22.90;42.30;;;;;;5037326;28;20135;-53
2022/11/28 12:55:44;;;;;;;1.77;0.90;;;23.00;42.10;;;;;;5034045;28;20464;-48
2022/11/28 12:58:14;;;;;;;1.58;1.10;;;23.00;41.90;;;;;;5046821;28;20343;-50
2022/11/28 13:01:18;;;;;;;1.00;0.80;;;23.10;41.80;;;;;;5033354;28;20043;-54
2022/11/28 13:04:33;;;;;;;1.70;1.10;;;23.20;41.70;;;;;;5047381;28;20727;-52
2022/11/28 13:07:27;;;;;;;1.45;1.20;;;23.20;41.60;;;;;;4970964;28;20027;-51
2022/11/28 13:10:12;;;;;;;1.20;1.00;;;23.30;41.50;;;;;;5011707;28;20041;-53
2022/11/28 13:12:47;;;;;;;1.70;0.70;;;23.30;41.40;;;;;;5022975;28;20037;-52
2022/11/28 13:15:21;;;;;;;2.28;1.10;;;23.30;41.30;;;;;;5046725;28;20044;-53
2022/11/28 13:17:56;;;;;;;;;;;23.40;41.30;;;;;;5050650;28;20033;-56